sensor_id;sensor_type;location;lat;lon;timestamp;P1;durP1;ratioP1;P2;durP2;ratioP2
66485;SDS011;53303;47.476;8.084;2023-04-03T00:02:11;6.75;;;1.38;;
66485;SDS011;53303;47.476;8.084;2023-04-03T00:04:36;5.13;;;1.20;;
66485;SDS011;53303;47.476;8.084;2023-04-03T00:07:02;7.32;;;1.33;;
66485;SDS011;53303;47.476;8.084;2023-04-03T00:09:29;5.07;;;1.10;;
66485;SDS011;53303;47.476;8.084;2023-04-03T00:11:56;7.30;;;1.45;;
66485;SDS011;53303;47.476;8.084;2023-04-03T00:14:21;5.68;;;1.40;;
66485;SDS011;53303;47.476;8.084;2023-04-03T00:16:49;6.40;;;1.40;;
66485;SDS011;53303;47.476;8.084;2023-04-03T00:19:14;10.35;;;1.38;;
66485;SDS011;53303;47.476;8.084;2023-04-03T00:21:40;4.47;;;1.02;;
66485;SDS011;53303;47.476;8.084;2023-04-03T00:24:05;3.95;;;1.15;;
66485;SDS011;53303;47.476;8.084;2023-04-03T00:26:31;5.55;;;1.10;;
66485;SDS011;53303;47.476;8.084;2023-04-03T00:28:56;6.25;;;1.08;;
66485;SDS011;53303;47.476;8.084;2023-04-03T00:31:22;6.38;;;1.60;;
66485;SDS011;53303;47.476;8.084;2023-04-03T00:33:47;6.95;;;1.27;;
66485;SDS011;53303;47.476;8.084;2023-04-03T00:36:13;7.88;;;1.20;;
66485;SDS011;53303;47.476;8.084;2023-04-03T00:38:38;4.70;;;1.40;;
66485;SDS011;53303;47.476;8.084;2023-04-03T00:41:04;6.43;;;1.33;;
66485;SDS011;53303;47.476;8.084;2023-04-03T00:43:30;3.47;;;0.98;;
66485;SDS011;53303;47.476;8.084;2023-04-03T00:45:58;3.78;;;1.08;;
66485;SDS011;53303;47.476;8.084;2023-04-03T00:51:07;4.47;;;1.33;;
66485;SDS011;53303;47.476;8.084;2023-04-03T00:53:46;4.50;;;1.38;;
66485;SDS011;53303;47.476;8.084;2023-04-03T00:56:16;8.23;;;1.20;;
66485;SDS011;53303;47.476;8.084;2023-04-03T00:58:54;6.68;;;1.20;;
66485;SDS011;53303;47.476;8.084;2023-04-03T01:01:28;6.45;;;1.45;;
66485;SDS011;53303;47.476;8.084;2023-04-03T01:03:54;6.15;;;1.05;;
66485;SDS011;53303;47.476;8.084;2023-04-03T01:06:27;5.20;;;1.65;;
66485;SDS011;53303;47.476;8.084;2023-04-03T01:08:56;6.07;;;0.90;;
66485;SDS011;53303;47.476;8.084;2023-04-03T01:11:22;5.95;;;1.40;;
66485;SDS011;53303;47.476;8.084;2023-04-03T01:13:48;6.88;;;1.48;;
66485;SDS011;53303;47.476;8.084;2023-04-03T01:16:14;4.50;;;1.35;;
66485;SDS011;53303;47.476;8.084;2023-04-03T01:18:42;3.55;;;1.10;;
66485;SDS011;53303;47.476;8.084;2023-04-03T01:21:24;3.15;;;1.05;;
66485;SDS011;53303;47.476;8.084;2023-04-03T01:26:36;4.10;;;1.08;;
66485;SDS011;53303;47.476;8.084;2023-04-03T01:29:04;4.80;;;1.25;;
66485;SDS011;53303;47.476;8.084;2023-04-03T01:31:32;4.45;;;0.95;;
66485;SDS011;53303;47.476;8.084;2023-04-03T01:34:18;5.65;;;1.30;;
66485;SDS011;53303;47.476;8.084;2023-04-03T01:36:44;4.35;;;1.20;;
66485;SDS011;53303;47.476;8.084;2023-04-03T01:39:12;4.95;;;1.23;;
66485;SDS011;53303;47.476;8.084;2023-04-03T01:41:38;2.53;;;0.93;;
66485;SDS011;53303;47.476;8.084;2023-04-03T01:44:03;6.03;;;1.20;;
66485;SDS011;53303;47.476;8.084;2023-04-03T01:46:31;7.18;;;1.45;;
66485;SDS011;53303;47.476;8.084;2023-04-03T01:48:57;3.90;;;0.98;;
66485;SDS011;53303;47.476;8.084;2023-04-03T01:51:22;2.80;;;0.80;;
66485;SDS011;53303;47.476;8.084;2023-04-03T01:53:47;6.65;;;1.23;;
66485;SDS011;53303;47.476;8.084;2023-04-03T01:56:13;4.05;;;0.95;;
66485;SDS011;53303;47.476;8.084;2023-04-03T01:58:38;3.65;;;1.58;;
66485;SDS011;53303;47.476;8.084;2023-04-03T02:01:04;5.20;;;1.30;;
66485;SDS011;53303;47.476;8.084;2023-04-03T02:03:33;3.72;;;1.00;;
66485;SDS011;53303;47.476;8.084;2023-04-03T02:05:58;4.47;;;0.95;;
66485;SDS011;53303;47.476;8.084;2023-04-03T02:08:24;5.25;;;1.25;;
66485;SDS011;53303;47.476;8.084;2023-04-03T02:10:49;6.75;;;1.48;;
66485;SDS011;53303;47.476;8.084;2023-04-03T02:13:18;6.13;;;1.02;;
66485;SDS011;53303;47.476;8.084;2023-04-03T02:15:43;5.45;;;1.00;;
66485;SDS011;53303;47.476;8.084;2023-04-03T02:18:11;4.45;;;1.10;;
66485;SDS011;53303;47.476;8.084;2023-04-03T02:20:37;3.45;;;1.00;;
66485;SDS011;53303;47.476;8.084;2023-04-03T02:23:05;4.50;;;1.50;;
66485;SDS011;53303;47.476;8.084;2023-04-03T02:25:33;5.60;;;1.52;;
66485;SDS011;53303;47.476;8.084;2023-04-03T02:27:59;4.72;;;1.30;;
66485;SDS011;53303;47.476;8.084;2023-04-03T02:30:24;3.53;;;1.00;;
66485;SDS011;53303;47.476;8.084;2023-04-03T02:32:50;4.35;;;1.48;;
66485;SDS011;53303;47.476;8.084;2023-04-03T02:35:15;3.85;;;0.93;;
66485;SDS011;53303;47.476;8.084;2023-04-03T02:37:41;6.53;;;1.10;;
66485;SDS011;53303;47.476;8.084;2023-04-03T02:40:07;4.82;;;1.13;;
66485;SDS011;53303;47.476;8.084;2023-04-03T02:42:33;4.97;;;1.08;;
66485;SDS011;53303;47.476;8.084;2023-04-03T02:44:59;4.72;;;1.00;;
66485;SDS011;53303;47.476;8.084;2023-04-03T02:47:26;4.93;;;1.40;;
66485;SDS011;53303;47.476;8.084;2023-04-03T02:49:52;4.72;;;1.25;;
66485;SDS011;53303;47.476;8.084;2023-04-03T02:52:17;4.70;;;1.20;;
66485;SDS011;53303;47.476;8.084;2023-04-03T02:54:43;3.40;;;1.35;;
66485;SDS011;53303;47.476;8.084;2023-04-03T02:57:08;3.90;;;1.27;;
66485;SDS011;53303;47.476;8.084;2023-04-03T02:59:37;3.65;;;1.20;;
66485;SDS011;53303;47.476;8.084;2023-04-03T03:02:08;3.83;;;1.02;;
66485;SDS011;53303;47.476;8.084;2023-04-03T03:04:34;4.38;;;1.20;;
66485;SDS011;53303;47.476;8.084;2023-04-03T03:06:59;2.92;;;0.90;;
66485;SDS011;53303;47.476;8.084;2023-04-03T03:09:25;4.05;;;1.10;;
66485;SDS011;53303;47.476;8.084;2023-04-03T03:11:51;3.10;;;0.98;;
66485;SDS011;53303;47.476;8.084;2023-04-03T03:14:16;6.25;;;1.15;;
66485;SDS011;53303;47.476;8.084;2023-04-03T03:16:42;7.15;;;1.25;;
66485;SDS011;53303;47.476;8.084;2023-04-03T03:19:07;4.75;;;1.20;;
66485;SDS011;53303;47.476;8.084;2023-04-03T03:21:33;5.93;;;1.20;;
66485;SDS011;53303;47.476;8.084;2023-04-03T03:23:58;4.90;;;1.60;;
66485;SDS011;53303;47.476;8.084;2023-04-03T03:26:26;3.78;;;1.33;;
66485;SDS011;53303;47.476;8.084;2023-04-03T03:28:51;5.03;;;1.40;;
66485;SDS011;53303;47.476;8.084;2023-04-03T03:31:19;2.47;;;1.20;;
66485;SDS011;53303;47.476;8.084;2023-04-03T03:33:47;2.95;;;1.00;;
66485;SDS011;53303;47.476;8.084;2023-04-03T03:36:15;4.65;;;1.45;;
66485;SDS011;53303;47.476;8.084;2023-04-03T03:38:40;3.78;;;1.20;;
66485;SDS011;53303;47.476;8.084;2023-04-03T03:41:06;4.45;;;1.40;;
66485;SDS011;53303;47.476;8.084;2023-04-03T03:43:32;3.47;;;1.02;;
66485;SDS011;53303;47.476;8.084;2023-04-03T03:45:59;5.10;;;1.00;;
66485;SDS011;53303;47.476;8.084;2023-04-03T03:48:25;4.25;;;1.30;;
66485;SDS011;53303;47.476;8.084;2023-04-03T03:50:50;4.85;;;1.20;;
66485;SDS011;53303;47.476;8.084;2023-04-03T03:53:16;4.45;;;1.33;;
66485;SDS011;53303;47.476;8.084;2023-04-03T03:55:41;3.92;;;1.30;;
66485;SDS011;53303;47.476;8.084;2023-04-03T03:58:07;8.10;;;1.33;;
66485;SDS011;53303;47.476;8.084;2023-04-03T04:00:32;3.70;;;1.02;;
66485;SDS011;53303;47.476;8.084;2023-04-03T04:02:58;7.90;;;1.80;;
66485;SDS011;53303;47.476;8.084;2023-04-03T04:05:23;11.75;;;1.70;;
66485;SDS011;53303;47.476;8.084;2023-04-03T04:07:51;8.18;;;1.40;;
66485;SDS011;53303;47.476;8.084;2023-04-03T04:10:17;7.32;;;1.98;;
66485;SDS011;53303;47.476;8.084;2023-04-03T04:12:42;5.57;;;1.52;;
66485;SDS011;53303;47.476;8.084;2023-04-03T04:15:08;9.52;;;1.52;;
66485;SDS011;53303;47.476;8.084;2023-04-03T04:17:34;8.75;;;1.70;;
66485;SDS011;53303;47.476;8.084;2023-04-03T04:20:00;8.23;;;1.70;;
66485;SDS011;53303;47.476;8.084;2023-04-03T04:22:26;5.53;;;1.60;;
66485;SDS011;53303;47.476;8.084;2023-04-03T04:24:51;6.57;;;1.50;;
66485;SDS011;53303;47.476;8.084;2023-04-03T04:27:17;7.13;;;1.85;;
66485;SDS011;53303;47.476;8.084;2023-04-03T04:29:42;7.38;;;1.67;;
66485;SDS011;53303;47.476;8.084;2023-04-03T04:32:09;8.43;;;1.63;;
66485;SDS011;53303;47.476;8.084;2023-04-03T04:34:37;8.38;;;2.00;;
66485;SDS011;53303;47.476;8.084;2023-04-03T04:37:03;6.57;;;1.38;;
66485;SDS011;53303;47.476;8.084;2023-04-03T04:39:30;7.03;;;1.80;;
66485;SDS011;53303;47.476;8.084;2023-04-03T04:41:58;5.72;;;1.60;;
66485;SDS011;53303;47.476;8.084;2023-04-03T04:44:24;8.80;;;1.80;;
66485;SDS011;53303;47.476;8.084;2023-04-03T04:46:49;8.85;;;1.73;;
66485;SDS011;53303;47.476;8.084;2023-04-03T04:49:17;5.20;;;1.60;;
66485;SDS011;53303;47.476;8.084;2023-04-03T04:51:45;7.60;;;1.52;;
66485;SDS011;53303;47.476;8.084;2023-04-03T04:54:10;9.60;;;1.80;;
66485;SDS011;53303;47.476;8.084;2023-04-03T04:56:36;8.63;;;1.50;;
66485;SDS011;53303;47.476;8.084;2023-04-03T04:59:04;4.45;;;1.27;;
66485;SDS011;53303;47.476;8.084;2023-04-03T05:01:29;5.45;;;1.52;;
66485;SDS011;53303;47.476;8.084;2023-04-03T05:03:55;4.90;;;1.50;;
66485;SDS011;53303;47.476;8.084;2023-04-03T05:06:20;6.40;;;1.73;;
66485;SDS011;53303;47.476;8.084;2023-04-03T05:08:46;6.63;;;1.80;;
66485;SDS011;53303;47.476;8.084;2023-04-03T05:11:13;7.28;;;1.63;;
66485;SDS011;53303;47.476;8.084;2023-04-03T05:13:39;7.30;;;1.45;;
66485;SDS011;53303;47.476;8.084;2023-04-03T05:16:04;6.43;;;1.90;;
66485;SDS011;53303;47.476;8.084;2023-04-03T05:18:32;4.10;;;1.60;;
66485;SDS011;53303;47.476;8.084;2023-04-03T05:20:58;4.53;;;1.50;;
66485;SDS011;53303;47.476;8.084;2023-04-03T05:23:23;7.47;;;1.90;;
66485;SDS011;53303;47.476;8.084;2023-04-03T05:25:55;7.55;;;1.88;;
66485;SDS011;53303;47.476;8.084;2023-04-03T05:28:20;5.03;;;1.95;;
66485;SDS011;53303;47.476;8.084;2023-04-03T05:30:46;7.38;;;1.60;;
66485;SDS011;53303;47.476;8.084;2023-04-03T05:33:18;5.65;;;1.70;;
66485;SDS011;53303;47.476;8.084;2023-04-03T05:35:43;6.18;;;2.00;;
66485;SDS011;53303;47.476;8.084;2023-04-03T05:38:09;5.30;;;1.75;;
66485;SDS011;53303;47.476;8.084;2023-04-03T05:40:34;8.98;;;1.92;;
66485;SDS011;53303;47.476;8.084;2023-04-03T05:43:02;5.00;;;1.73;;
66485;SDS011;53303;47.476;8.084;2023-04-03T05:45:27;7.75;;;1.90;;
66485;SDS011;53303;47.476;8.084;2023-04-03T05:47:58;6.03;;;1.90;;
66485;SDS011;53303;47.476;8.084;2023-04-03T05:50:23;5.35;;;1.50;;
66485;SDS011;53303;47.476;8.084;2023-04-03T05:52:49;4.97;;;1.60;;
66485;SDS011;53303;47.476;8.084;2023-04-03T05:55:17;5.95;;;1.45;;
66485;SDS011;53303;47.476;8.084;2023-04-03T05:57:43;7.05;;;1.60;;
66485;SDS011;53303;47.476;8.084;2023-04-03T06:00:12;3.58;;;1.30;;
66485;SDS011;53303;47.476;8.084;2023-04-03T06:02:41;10.27;;;1.80;;
66485;SDS011;53303;47.476;8.084;2023-04-03T06:05:07;5.07;;;1.85;;
66485;SDS011;53303;47.476;8.084;2023-04-03T06:07:34;6.07;;;1.50;;
66485;SDS011;53303;47.476;8.084;2023-04-03T06:09:59;4.85;;;1.90;;
66485;SDS011;53303;47.476;8.084;2023-04-03T06:12:25;6.28;;;1.77;;
66485;SDS011;53303;47.476;8.084;2023-04-03T06:14:50;5.95;;;1.73;;
66485;SDS011;53303;47.476;8.084;2023-04-03T06:17:16;4.68;;;1.83;;
66485;SDS011;53303;47.476;8.084;2023-04-03T06:19:43;3.28;;;1.52;;
66485;SDS011;53303;47.476;8.084;2023-04-03T06:22:09;5.40;;;2.00;;
66485;SDS011;53303;47.476;8.084;2023-04-03T06:24:36;5.88;;;1.85;;
66485;SDS011;53303;47.476;8.084;2023-04-03T06:27:02;4.90;;;1.70;;
66485;SDS011;53303;47.476;8.084;2023-04-03T06:29:27;4.78;;;1.65;;
66485;SDS011;53303;47.476;8.084;2023-04-03T06:31:53;4.70;;;1.83;;
66485;SDS011;53303;47.476;8.084;2023-04-03T06:34:18;3.70;;;1.38;;
66485;SDS011;53303;47.476;8.084;2023-04-03T06:36:44;5.40;;;1.52;;
66485;SDS011;53303;47.476;8.084;2023-04-03T06:39:15;8.35;;;2.20;;
66485;SDS011;53303;47.476;8.084;2023-04-03T06:41:42;4.25;;;1.58;;
66485;SDS011;53303;47.476;8.084;2023-04-03T06:44:08;5.20;;;1.55;;
66485;SDS011;53303;47.476;8.084;2023-04-03T06:46:36;5.20;;;1.70;;
66485;SDS011;53303;47.476;8.084;2023-04-03T06:49:03;3.97;;;1.52;;
66485;SDS011;53303;47.476;8.084;2023-04-03T06:51:29;4.97;;;1.50;;
66485;SDS011;53303;47.476;8.084;2023-04-03T06:53:58;5.03;;;1.80;;
66485;SDS011;53303;47.476;8.084;2023-04-03T06:56:27;4.35;;;2.10;;
66485;SDS011;53303;47.476;8.084;2023-04-03T06:58:53;4.20;;;2.00;;
66485;SDS011;53303;47.476;8.084;2023-04-03T07:01:23;5.50;;;2.00;;
66485;SDS011;53303;47.476;8.084;2023-04-03T07:03:51;4.88;;;1.90;;
66485;SDS011;53303;47.476;8.084;2023-04-03T07:06:17;4.75;;;1.70;;
66485;SDS011;53303;47.476;8.084;2023-04-03T07:08:43;4.30;;;1.70;;
66485;SDS011;53303;47.476;8.084;2023-04-03T07:11:09;4.55;;;1.60;;
66485;SDS011;53303;47.476;8.084;2023-04-03T07:13:35;6.68;;;2.30;;
66485;SDS011;53303;47.476;8.084;2023-04-03T07:16:01;5.38;;;1.90;;
66485;SDS011;53303;47.476;8.084;2023-04-03T07:18:31;5.40;;;1.80;;
66485;SDS011;53303;47.476;8.084;2023-04-03T07:20:57;3.35;;;1.90;;
66485;SDS011;53303;47.476;8.084;2023-04-03T07:23:22;4.35;;;2.08;;
66485;SDS011;53303;47.476;8.084;2023-04-03T07:25:51;5.28;;;1.88;;
66485;SDS011;53303;47.476;8.084;2023-04-03T07:28:17;7.55;;;2.00;;
66485;SDS011;53303;47.476;8.084;2023-04-03T07:30:48;4.55;;;1.85;;
66485;SDS011;53303;47.476;8.084;2023-04-03T07:33:19;6.40;;;2.33;;
66485;SDS011;53303;47.476;8.084;2023-04-03T07:35:46;5.30;;;2.20;;
66485;SDS011;53303;47.476;8.084;2023-04-03T07:38:11;4.22;;;1.90;;
66485;SDS011;53303;47.476;8.084;2023-04-03T07:40:39;5.63;;;1.92;;
66485;SDS011;53303;47.476;8.084;2023-04-03T07:43:05;4.05;;;2.20;;
66485;SDS011;53303;47.476;8.084;2023-04-03T07:45:31;5.05;;;2.08;;
66485;SDS011;53303;47.476;8.084;2023-04-03T07:47:57;4.28;;;2.03;;
66485;SDS011;53303;47.476;8.084;2023-04-03T07:50:22;3.75;;;1.80;;
66485;SDS011;53303;47.476;8.084;2023-04-03T07:52:48;3.67;;;1.73;;
66485;SDS011;53303;47.476;8.084;2023-04-03T07:55:19;6.60;;;2.03;;
66485;SDS011;53303;47.476;8.084;2023-04-03T07:57:45;5.57;;;2.00;;
66485;SDS011;53303;47.476;8.084;2023-04-03T08:00:13;4.82;;;2.05;;
66485;SDS011;53303;47.476;8.084;2023-04-03T08:02:40;4.05;;;1.70;;
66485;SDS011;53303;47.476;8.084;2023-04-03T08:05:05;7.00;;;2.40;;
66485;SDS011;53303;47.476;8.084;2023-04-03T08:07:31;5.95;;;2.10;;
66485;SDS011;53303;47.476;8.084;2023-04-03T08:09:56;3.88;;;2.10;;
66485;SDS011;53303;47.476;8.084;2023-04-03T08:12:22;6.00;;;1.75;;
66485;SDS011;53303;47.476;8.084;2023-04-03T08:14:47;4.05;;;2.00;;
66485;SDS011;53303;47.476;8.084;2023-04-03T08:17:13;4.50;;;1.80;;
66485;SDS011;53303;47.476;8.084;2023-04-03T08:19:39;4.93;;;2.13;;
66485;SDS011;53303;47.476;8.084;2023-04-03T08:22:05;4.00;;;1.95;;
66485;SDS011;53303;47.476;8.084;2023-04-03T08:24:31;4.72;;;2.00;;
66485;SDS011;53303;47.476;8.084;2023-04-03T08:27:00;4.70;;;2.25;;
66485;SDS011;53303;47.476;8.084;2023-04-03T08:29:26;4.68;;;2.30;;
66485;SDS011;53303;47.476;8.084;2023-04-03T08:31:51;4.28;;;1.90;;
66485;SDS011;53303;47.476;8.084;2023-04-03T08:34:17;4.32;;;1.95;;
66485;SDS011;53303;47.476;8.084;2023-04-03T08:36:44;4.07;;;1.95;;
66485;SDS011;53303;47.476;8.084;2023-04-03T08:39:10;5.10;;;2.20;;
66485;SDS011;53303;47.476;8.084;2023-04-03T08:41:40;4.57;;;2.50;;
66485;SDS011;53303;47.476;8.084;2023-04-03T08:47:10;4.47;;;2.28;;
66485;SDS011;53303;47.476;8.084;2023-04-03T08:50:15;5.47;;;2.50;;
66485;SDS011;53303;47.476;8.084;2023-04-03T08:52:48;5.03;;;2.42;;
66485;SDS011;53303;47.476;8.084;2023-04-03T08:58:05;6.45;;;2.30;;
66485;SDS011;53303;47.476;8.084;2023-04-03T09:00:40;5.93;;;2.40;;
66485;SDS011;53303;47.476;8.084;2023-04-03T09:03:15;5.38;;;2.10;;
66485;SDS011;53303;47.476;8.084;2023-04-03T09:10:43;4.22;;;2.03;;
66485;SDS011;53303;47.476;8.084;2023-04-03T09:15:55;4.15;;;2.10;;
66485;SDS011;53303;47.476;8.084;2023-04-03T09:18:41;4.28;;;2.08;;
66485;SDS011;53303;47.476;8.084;2023-04-03T09:21:30;3.97;;;2.22;;
66485;SDS011;53303;47.476;8.084;2023-04-03T09:24:01;4.68;;;2.63;;
66485;SDS011;53303;47.476;8.084;2023-04-03T09:29:07;4.05;;;2.17;;
66485;SDS011;53303;47.476;8.084;2023-04-03T09:31:37;4.45;;;2.40;;
66485;SDS011;53303;47.476;8.084;2023-04-03T09:37:12;4.22;;;2.20;;
66485;SDS011;53303;47.476;8.084;2023-04-03T09:40:05;3.65;;;2.00;;
66485;SDS011;53303;47.476;8.084;2023-04-03T09:43:02;6.05;;;2.42;;
66485;SDS011;53303;47.476;8.084;2023-04-03T09:45:45;5.35;;;2.17;;
66485;SDS011;53303;47.476;8.084;2023-04-03T09:50:38;4.85;;;2.10;;
66485;SDS011;53303;47.476;8.084;2023-04-03T09:53:26;4.65;;;2.50;;
66485;SDS011;53303;47.476;8.084;2023-04-03T09:55:54;4.55;;;2.20;;
66485;SDS011;53303;47.476;8.084;2023-04-03T09:58:25;4.18;;;2.08;;
66485;SDS011;53303;47.476;8.084;2023-04-03T10:06:00;5.13;;;2.60;;
66485;SDS011;53303;47.476;8.084;2023-04-03T10:08:31;5.35;;;2.30;;
66485;SDS011;53303;47.476;8.084;2023-04-03T10:11:09;4.32;;;2.60;;
66485;SDS011;53303;47.476;8.084;2023-04-03T10:13:55;5.65;;;2.65;;
66485;SDS011;53303;47.476;8.084;2023-04-03T10:16:26;4.93;;;2.70;;
66485;SDS011;53303;47.476;8.084;2023-04-03T10:19:23;4.30;;;2.55;;
66485;SDS011;53303;47.476;8.084;2023-04-03T10:21:56;6.30;;;2.42;;
66485;SDS011;53303;47.476;8.084;2023-04-03T10:24:31;4.88;;;2.70;;
66485;SDS011;53303;47.476;8.084;2023-04-03T10:27:16;4.90;;;2.47;;
66485;SDS011;53303;47.476;8.084;2023-04-03T10:33:05;4.40;;;2.55;;
66485;SDS011;53303;47.476;8.084;2023-04-03T10:38:35;5.10;;;2.22;;
66485;SDS011;53303;47.476;8.084;2023-04-03T10:46:51;4.72;;;2.20;;
66485;SDS011;53303;47.476;8.084;2023-04-03T10:52:12;4.57;;;2.30;;
66485;SDS011;53303;47.476;8.084;2023-04-03T10:54:39;4.65;;;2.80;;
66485;SDS011;53303;47.476;8.084;2023-04-03T10:57:13;5.25;;;2.30;;
66485;SDS011;53303;47.476;8.084;2023-04-03T11:02:18;5.93;;;2.38;;
66485;SDS011;53303;47.476;8.084;2023-04-03T11:04:52;5.72;;;2.70;;
66485;SDS011;53303;47.476;8.084;2023-04-03T11:07:27;5.43;;;2.22;;
66485;SDS011;53303;47.476;8.084;2023-04-03T11:10:06;5.70;;;2.22;;
66485;SDS011;53303;47.476;8.084;2023-04-03T11:12:49;5.50;;;2.53;;
66485;SDS011;53303;47.476;8.084;2023-04-03T11:15:23;5.60;;;2.30;;
66485;SDS011;53303;47.476;8.084;2023-04-03T11:17:58;4.78;;;2.17;;
66485;SDS011;53303;47.476;8.084;2023-04-03T11:20:36;5.10;;;2.35;;
66485;SDS011;53303;47.476;8.084;2023-04-03T11:23:04;5.40;;;2.42;;
66485;SDS011;53303;47.476;8.084;2023-04-03T11:25:38;5.00;;;2.42;;
66485;SDS011;53303;47.476;8.084;2023-04-03T11:28:09;4.22;;;2.25;;
66485;SDS011;53303;47.476;8.084;2023-04-03T11:36:24;4.82;;;2.30;;
66485;SDS011;53303;47.476;8.084;2023-04-03T11:38:53;5.20;;;2.42;;
66485;SDS011;53303;47.476;8.084;2023-04-03T11:41:25;4.47;;;2.50;;
66485;SDS011;53303;47.476;8.084;2023-04-03T11:44:25;5.50;;;2.30;;
66485;SDS011;53303;47.476;8.084;2023-04-03T11:46:59;5.05;;;2.45;;
66485;SDS011;53303;47.476;8.084;2023-04-03T11:55:35;5.63;;;2.20;;
66485;SDS011;53303;47.476;8.084;2023-04-03T12:16:41;4.55;;;2.40;;
66485;SDS011;53303;47.476;8.084;2023-04-03T12:24:29;4.50;;;2.45;;
66485;SDS011;53303;47.476;8.084;2023-04-03T12:32:06;4.75;;;2.63;;
66485;SDS011;53303;47.476;8.084;2023-04-03T12:54:42;5.63;;;2.83;;
66485;SDS011;53303;47.476;8.084;2023-04-03T12:57:10;5.40;;;2.47;;
66485;SDS011;53303;47.476;8.084;2023-04-03T12:59:36;5.32;;;2.40;;
66485;SDS011;53303;47.476;8.084;2023-04-03T13:02:03;7.20;;;2.50;;
66485;SDS011;53303;47.476;8.084;2023-04-03T13:04:37;7.15;;;2.75;;
66485;SDS011;53303;47.476;8.084;2023-04-03T13:07:03;4.30;;;2.10;;
66485;SDS011;53303;47.476;8.084;2023-04-03T13:09:30;5.35;;;2.53;;
66485;SDS011;53303;47.476;8.084;2023-04-03T13:11:58;5.30;;;2.58;;
66485;SDS011;53303;47.476;8.084;2023-04-03T13:14:26;6.85;;;2.92;;
66485;SDS011;53303;47.476;8.084;2023-04-03T13:17:04;6.00;;;2.67;;
66485;SDS011;53303;47.476;8.084;2023-04-03T13:19:39;5.65;;;2.25;;
66485;SDS011;53303;47.476;8.084;2023-04-03T13:24:50;5.25;;;2.75;;
66485;SDS011;53303;47.476;8.084;2023-04-03T13:27:17;6.18;;;2.85;;
66485;SDS011;53303;47.476;8.084;2023-04-03T13:29:48;6.95;;;2.35;;
66485;SDS011;53303;47.476;8.084;2023-04-03T13:32:18;5.32;;;2.35;;
66485;SDS011;53303;47.476;8.084;2023-04-03T13:34:46;5.63;;;2.90;;
66485;SDS011;53303;47.476;8.084;2023-04-03T13:37:23;7.45;;;2.72;;
66485;SDS011;53303;47.476;8.084;2023-04-03T13:40:00;5.13;;;2.35;;
66485;SDS011;53303;47.476;8.084;2023-04-03T13:42:43;7.00;;;2.65;;
66485;SDS011;53303;47.476;8.084;2023-04-03T13:45:20;4.90;;;2.42;;
66485;SDS011;53303;47.476;8.084;2023-04-03T13:47:53;6.90;;;2.40;;
66485;SDS011;53303;47.476;8.084;2023-04-03T13:50:49;5.35;;;2.70;;
66485;SDS011;53303;47.476;8.084;2023-04-03T13:53:21;5.47;;;3.10;;
66485;SDS011;53303;47.476;8.084;2023-04-03T13:55:55;4.72;;;2.60;;
66485;SDS011;53303;47.476;8.084;2023-04-03T13:58:23;8.23;;;3.03;;
66485;SDS011;53303;47.476;8.084;2023-04-03T14:00:55;6.68;;;2.50;;
66485;SDS011;53303;47.476;8.084;2023-04-03T14:06:07;4.68;;;2.38;;
66485;SDS011;53303;47.476;8.084;2023-04-03T14:08:38;5.25;;;2.90;;
66485;SDS011;53303;47.476;8.084;2023-04-03T14:11:04;5.10;;;2.75;;
66485;SDS011;53303;47.476;8.084;2023-04-03T14:13:30;5.65;;;2.90;;
66485;SDS011;53303;47.476;8.084;2023-04-03T14:15:56;5.82;;;2.55;;
66485;SDS011;53303;47.476;8.084;2023-04-03T14:18:24;5.55;;;2.80;;
66485;SDS011;53303;47.476;8.084;2023-04-03T14:20:50;5.07;;;2.90;;
66485;SDS011;53303;47.476;8.084;2023-04-03T14:23:15;4.97;;;2.75;;
66485;SDS011;53303;47.476;8.084;2023-04-03T14:25:41;5.68;;;2.42;;
66485;SDS011;53303;47.476;8.084;2023-04-03T14:28:17;4.68;;;2.75;;
66485;SDS011;53303;47.476;8.084;2023-04-03T14:30:47;5.38;;;2.88;;
66485;SDS011;53303;47.476;8.084;2023-04-03T14:33:16;5.15;;;2.50;;
66485;SDS011;53303;47.476;8.084;2023-04-03T14:35:45;5.65;;;2.85;;
66485;SDS011;53303;47.476;8.084;2023-04-03T14:38:23;6.03;;;2.63;;
66485;SDS011;53303;47.476;8.084;2023-04-03T14:40:50;5.25;;;2.55;;
66485;SDS011;53303;47.476;8.084;2023-04-03T14:43:19;5.03;;;2.33;;
66485;SDS011;53303;47.476;8.084;2023-04-03T14:45:46;5.35;;;2.75;;
66485;SDS011;53303;47.476;8.084;2023-04-03T14:48:17;7.25;;;2.70;;
66485;SDS011;53303;47.476;8.084;2023-04-03T14:50:45;5.78;;;2.95;;
66485;SDS011;53303;47.476;8.084;2023-04-03T14:53:14;6.35;;;3.28;;
66485;SDS011;53303;47.476;8.084;2023-04-03T14:55:46;5.40;;;2.67;;
66485;SDS011;53303;47.476;8.084;2023-04-03T14:58:16;5.80;;;2.78;;
66485;SDS011;53303;47.476;8.084;2023-04-03T15:00:45;4.13;;;2.10;;
66485;SDS011;53303;47.476;8.084;2023-04-03T15:03:18;5.65;;;2.67;;
66485;SDS011;53303;47.476;8.084;2023-04-03T15:05:48;5.20;;;2.92;;
66485;SDS011;53303;47.476;8.084;2023-04-03T15:08:19;6.70;;;2.70;;
66485;SDS011;53303;47.476;8.084;2023-04-03T15:10:47;6.35;;;2.47;;
66485;SDS011;53303;47.476;8.084;2023-04-03T15:13:13;6.15;;;2.70;;
66485;SDS011;53303;47.476;8.084;2023-04-03T15:15:39;4.90;;;2.60;;
66485;SDS011;53303;47.476;8.084;2023-04-03T15:18:05;5.22;;;2.42;;
66485;SDS011;53303;47.476;8.084;2023-04-03T15:20:31;5.07;;;2.92;;
66485;SDS011;53303;47.476;8.084;2023-04-03T15:22:58;5.30;;;2.97;;
66485;SDS011;53303;47.476;8.084;2023-04-03T15:25:29;6.22;;;2.95;;
66485;SDS011;53303;47.476;8.084;2023-04-03T15:27:55;5.03;;;2.63;;
66485;SDS011;53303;47.476;8.084;2023-04-03T15:30:22;5.13;;;2.90;;
66485;SDS011;53303;47.476;8.084;2023-04-03T15:32:49;6.40;;;2.83;;
66485;SDS011;53303;47.476;8.084;2023-04-03T15:35:15;6.45;;;2.50;;
66485;SDS011;53303;47.476;8.084;2023-04-03T15:37:41;5.63;;;2.55;;
66485;SDS011;53303;47.476;8.084;2023-04-03T15:40:06;6.07;;;2.50;;
66485;SDS011;53303;47.476;8.084;2023-04-03T15:42:32;5.28;;;2.50;;
66485;SDS011;53303;47.476;8.084;2023-04-03T15:44:58;5.10;;;2.38;;
66485;SDS011;53303;47.476;8.084;2023-04-03T15:47:24;6.07;;;2.70;;
66485;SDS011;53303;47.476;8.084;2023-04-03T15:49:50;4.95;;;2.28;;
66485;SDS011;53303;47.476;8.084;2023-04-03T15:52:15;6.00;;;2.63;;
66485;SDS011;53303;47.476;8.084;2023-04-03T15:54:43;5.03;;;2.72;;
66485;SDS011;53303;47.476;8.084;2023-04-03T15:57:08;5.90;;;3.10;;
66485;SDS011;53303;47.476;8.084;2023-04-03T15:59:34;4.88;;;3.00;;
66485;SDS011;53303;47.476;8.084;2023-04-03T16:01:59;5.32;;;2.72;;
66485;SDS011;53303;47.476;8.084;2023-04-03T16:04:28;6.40;;;2.55;;
66485;SDS011;53303;47.476;8.084;2023-04-03T16:06:54;6.10;;;2.95;;
66485;SDS011;53303;47.476;8.084;2023-04-03T16:09:20;4.82;;;2.70;;
66485;SDS011;53303;47.476;8.084;2023-04-03T16:11:48;5.80;;;2.50;;
66485;SDS011;53303;47.476;8.084;2023-04-03T16:14:13;4.85;;;2.22;;
66485;SDS011;53303;47.476;8.084;2023-04-03T16:16:39;35.17;;;5.25;;
66485;SDS011;53303;47.476;8.084;2023-04-03T16:19:04;90.80;;;8.60;;
66485;SDS011;53303;47.476;8.084;2023-04-03T16:21:31;135.90;;;11.70;;
66485;SDS011;53303;47.476;8.084;2023-04-03T16:23:59;143.05;;;15.63;;
66485;SDS011;53303;47.476;8.084;2023-04-03T16:26:26;157.00;;;15.32;;
66485;SDS011;53303;47.476;8.084;2023-04-03T16:28:52;109.65;;;11.77;;
66485;SDS011;53303;47.476;8.084;2023-04-03T16:31:18;127.75;;;12.57;;
66485;SDS011;53303;47.476;8.084;2023-04-03T16:33:45;76.75;;;7.95;;
66485;SDS011;53303;47.476;8.084;2023-04-03T16:36:10;102.40;;;10.55;;
66485;SDS011;53303;47.476;8.084;2023-04-03T16:38:39;85.97;;;9.77;;
66485;SDS011;53303;47.476;8.084;2023-04-03T16:41:04;85.15;;;9.38;;
66485;SDS011;53303;47.476;8.084;2023-04-03T16:43:30;64.95;;;9.00;;
66485;SDS011;53303;47.476;8.084;2023-04-03T16:46:00;73.95;;;9.32;;
66485;SDS011;53303;47.476;8.084;2023-04-03T16:48:27;63.88;;;7.90;;
66485;SDS011;53303;47.476;8.084;2023-04-03T16:50:53;64.47;;;8.02;;